createdAt,value
2023-03-08T00:00:36.125Z,-1.10
2023-03-08T00:03:11.327Z,-1.10
2023-03-08T00:05:38.486Z,-1.10
2023-03-08T00:08:05.518Z,-1.10
2023-03-08T00:10:32.628Z,-1.10
2023-03-08T00:12:59.660Z,-1.10
2023-03-08T00:15:26.704Z,-1.10
2023-03-08T00:17:53.812Z,-1.20
2023-03-08T00:20:20.955Z,-1.20
2023-03-08T00:22:51.000Z,-1.10
2023-03-08T00:25:18.237Z,-1.10
2023-03-08T00:27:45.434Z,-1.10
2023-03-08T00:30:13.683Z,-1.10
2023-03-08T00:32:41.110Z,-1.10
2023-03-08T00:35:09.728Z,-1.10
2023-03-08T00:37:36.765Z,-1.10
2023-03-08T00:40:05.974Z,-1.20
2023-03-08T00:42:33.103Z,-1.20
2023-03-08T00:45:00.115Z,-1.30
2023-03-08T00:47:27.156Z,-1.30
2023-03-08T00:49:54.355Z,-1.20
2023-03-08T00:52:21.436Z,-1.30
2023-03-08T00:54:48.462Z,-1.30
2023-03-08T00:57:16.474Z,-1.30
2023-03-08T00:59:43.627Z,-1.20
2023-03-08T01:02:10.829Z,-1.30
2023-03-08T01:04:37.844Z,-1.40
2023-03-08T01:07:04.971Z,-1.30
2023-03-08T01:09:32.354Z,-1.40
2023-03-08T01:11:59.425Z,-1.40
2023-03-08T01:14:27.143Z,-1.50
2023-03-08T01:16:54.235Z,-1.50
2023-03-08T01:19:21.351Z,-1.50
2023-03-08T01:21:48.383Z,-1.50
2023-03-08T01:24:15.545Z,-1.60
2023-03-08T01:26:42.536Z,-1.60
2023-03-08T01:29:09.870Z,-1.60
2023-03-08T01:31:37.361Z,-1.60
2023-03-08T01:34:05.254Z,-1.60
2023-03-08T01:36:32.301Z,-1.50
2023-03-08T01:39:01.744Z,-1.60
2023-03-08T01:41:31.306Z,-1.60
2023-03-08T01:43:59.009Z,-1.60
2023-03-08T01:46:37.757Z,-1.70
2023-03-08T01:49:10.743Z,-1.70
2023-03-08T01:51:52.486Z,-1.70
2023-03-08T01:54:31.624Z,-1.70
2023-03-08T01:57:11.994Z,-1.80
2023-03-08T01:59:40.178Z,-1.70
2023-03-08T02:02:07.841Z,-1.80
2023-03-08T02:04:35.374Z,-1.80
2023-03-08T02:07:02.492Z,-1.80
2023-03-08T02:09:29.690Z,-1.80
2023-03-08T02:12:01.396Z,-2.00
2023-03-08T02:14:29.192Z,-1.90
2023-03-08T02:16:56.628Z,-1.90
2023-03-08T02:20:08.445Z,-1.90
2023-03-08T02:22:44.392Z,-2.00
2023-03-08T02:25:19.149Z,-2.00
2023-03-08T02:27:46.505Z,-2.10
2023-03-08T02:30:16.220Z,-2.10
2023-03-08T02:32:44.123Z,-2.10
2023-03-08T02:35:11.331Z,-2.10
2023-03-08T02:37:38.336Z,-2.10
2023-03-08T02:40:06.202Z,-2.10
2023-03-08T02:42:33.272Z,-2.10
2023-03-08T02:45:00.396Z,-2.10
2023-03-08T02:47:27.546Z,-2.10
2023-03-08T02:49:54.649Z,-2.10
2023-03-08T02:52:21.714Z,-2.10
2023-03-08T02:54:48.916Z,-2.10
2023-03-08T02:57:16.148Z,-2.10
2023-03-08T02:59:43.464Z,-2.10
2023-03-08T03:02:10.582Z,-2.10
2023-03-08T03:04:37.948Z,-2.20
2023-03-08T03:07:05.297Z,-2.20
2023-03-08T03:09:34.731Z,-2.20
2023-03-08T03:12:02.029Z,-2.20
2023-03-08T03:14:29.994Z,-2.20
2023-03-08T03:16:59.154Z,-2.20
2023-03-08T03:19:26.207Z,-2.20
2023-03-08T03:21:53.275Z,-2.30
2023-03-08T03:24:20.735Z,-2.30
2023-03-08T03:26:51.306Z,-2.30
2023-03-08T03:29:19.745Z,-2.30
2023-03-08T03:31:48.733Z,-2.30
2023-03-08T03:34:16.038Z,-2.30
2023-03-08T03:36:43.104Z,-2.30
2023-03-08T03:39:10.354Z,-2.30
2023-03-08T03:41:37.708Z,-2.30
2023-03-08T03:44:04.965Z,-2.30
2023-03-08T03:46:33.491Z,-2.30
2023-03-08T03:49:00.805Z,-2.30
2023-03-08T03:51:28.668Z,-2.30
2023-03-08T03:53:55.914Z,-2.40
2023-03-08T03:56:25.318Z,-2.30
2023-03-08T03:58:53.342Z,-2.30
2023-03-08T04:01:26.455Z,-2.30
2023-03-08T04:03:55.057Z,-2.20
2023-03-08T04:06:27.498Z,-2.30
2023-03-08T04:08:56.280Z,-2.30
2023-03-08T04:11:31.184Z,-2.30
2023-03-08T04:13:58.421Z,-2.20
2023-03-08T04:16:29.357Z,-2.20
2023-03-08T04:18:59.579Z,-2.20
2023-03-08T04:21:27.265Z,-2.20
2023-03-08T04:23:54.888Z,-2.20
2023-03-08T04:26:23.074Z,-2.20
2023-03-08T04:28:50.610Z,-2.20
2023-03-08T04:31:24.853Z,-2.20
2023-03-08T04:33:52.961Z,-2.20
2023-03-08T04:36:20.661Z,-2.20
2023-03-08T04:38:48.537Z,-2.10
2023-03-08T04:41:15.931Z,-2.20
2023-03-08T04:43:51.564Z,-2.20
2023-03-08T04:46:21.064Z,-2.20
2023-03-08T04:48:48.187Z,-2.20
2023-03-08T04:51:17.102Z,-2.20
2023-03-08T04:53:45.564Z,-2.20
2023-03-08T04:56:14.761Z,-2.20
2023-03-08T04:58:42.729Z,-2.20
2023-03-08T05:01:12.339Z,-2.20
2023-03-08T05:03:39.637Z,-2.10
2023-03-08T05:06:07.796Z,-2.10
2023-03-08T05:08:35.217Z,-2.20
2023-03-08T05:11:04.801Z,-2.20
2023-03-08T05:13:35.352Z,-2.20
2023-03-08T05:16:03.731Z,-2.30
2023-03-08T05:18:30.841Z,-2.30
2023-03-08T05:21:00.202Z,-2.30
2023-03-08T05:23:28.804Z,-2.40
2023-03-08T05:26:00.885Z,-2.50
2023-03-08T05:28:30.288Z,-2.40
2023-03-08T05:31:09.471Z,-2.50
2023-03-08T05:33:37.642Z,-2.50
2023-03-08T05:36:05.540Z,-2.40
2023-03-08T05:38:32.901Z,-2.50
2023-03-08T05:41:05.554Z,-2.50
2023-03-08T05:43:33.243Z,-2.50
2023-03-08T05:46:19.923Z,-2.50
2023-03-08T05:48:47.474Z,-2.60
2023-03-08T05:51:18.716Z,-2.60
2023-03-08T05:53:46.137Z,-2.60
2023-03-08T05:56:22.247Z,-2.70
2023-03-08T05:58:49.810Z,-2.60
2023-03-08T06:01:20.938Z,-2.60
2023-03-08T06:03:51.173Z,-2.60
2023-03-08T06:06:19.739Z,-2.60
2023-03-08T06:08:50.544Z,-2.60
2023-03-08T06:11:18.902Z,-2.60
2023-03-08T06:13:45.963Z,-2.60
2023-03-08T06:16:13.540Z,-2.60
2023-03-08T06:18:42.271Z,-2.60
2023-03-08T06:21:13.249Z,-2.60
2023-03-08T06:23:40.709Z,-2.60
2023-03-08T06:26:09.029Z,-2.60
2023-03-08T06:28:36.688Z,-2.60
2023-03-08T06:31:04.208Z,-2.60
2023-03-08T06:33:33.245Z,-2.60
2023-03-08T06:36:09.012Z,-2.60
2023-03-08T06:38:38.092Z,-2.60
2023-03-08T06:41:06.749Z,-2.60
2023-03-08T06:43:34.706Z,-2.60
2023-03-08T06:46:06.855Z,-2.60
2023-03-08T06:48:37.994Z,-2.50
2023-03-08T06:51:06.379Z,-2.50
2023-03-08T06:53:36.412Z,-2.50
2023-03-08T06:56:08.144Z,-2.60
2023-03-08T06:58:36.821Z,-2.50
2023-03-08T07:01:05.994Z,-2.60
2023-03-08T07:03:34.038Z,-2.50
2023-03-08T07:06:03.092Z,-2.60
2023-03-08T07:08:30.612Z,-2.50
2023-03-08T07:10:59.511Z,-2.50
2023-03-08T07:13:26.940Z,-2.50
2023-03-08T07:15:54.315Z,-2.40
2023-03-08T07:18:21.473Z,-2.50
2023-03-08T07:20:57.003Z,-2.60
2023-03-08T07:23:24.510Z,-2.60
2023-03-08T07:25:51.907Z,-2.50
2023-03-08T07:28:19.079Z,-2.60
2023-03-08T07:30:50.639Z,-2.50
2023-03-08T07:33:19.550Z,-2.50
2023-03-08T07:35:46.903Z,-2.50
2023-03-08T07:38:14.822Z,-2.50
2023-03-08T07:40:42.361Z,-2.50
2023-03-08T07:43:09.421Z,-2.50
2023-03-08T07:45:39.752Z,-2.50
2023-03-08T07:48:07.493Z,-2.40
2023-03-08T07:50:35.037Z,-2.50
2023-03-08T07:53:03.308Z,-2.60
2023-03-08T07:55:33.051Z,-2.60
2023-03-08T07:58:00.112Z,-2.60
2023-03-08T08:00:28.319Z,-2.60
2023-03-08T08:02:56.784Z,-2.50
2023-03-08T08:05:25.117Z,-2.60
2023-03-08T08:07:52.969Z,-2.60
2023-03-08T08:10:20.637Z,-2.50
2023-03-08T08:12:48.542Z,-2.60
2023-03-08T08:15:23.724Z,-2.60
2023-03-08T08:17:50.770Z,-2.60
2023-03-08T08:20:17.932Z,-2.60
2023-03-08T08:22:45.288Z,-2.50
2023-03-08T08:25:12.245Z,-2.40
2023-03-08T08:27:39.343Z,-2.40
2023-03-08T08:30:07.448Z,-2.40
2023-03-08T08:32:36.089Z,-2.40
2023-03-08T08:35:03.185Z,-2.50
2023-03-08T08:37:31.782Z,-2.50
2023-03-08T08:39:58.950Z,-2.50
2023-03-08T08:42:27.139Z,-2.50
2023-03-08T08:44:54.806Z,-2.40
2023-03-08T08:47:21.798Z,-2.40
2023-03-08T08:49:48.792Z,-2.30
2023-03-08T08:52:16.071Z,-2.30
2023-03-08T08:54:43.207Z,-2.30
2023-03-08T08:57:10.307Z,-2.40
2023-03-08T08:59:40.631Z,-2.40
2023-03-08T09:02:08.064Z,-2.40
2023-03-08T09:04:36.067Z,-2.50
2023-03-08T09:07:03.413Z,-2.50
2023-03-08T09:09:30.421Z,-2.50
2023-03-08T09:11:57.413Z,-2.60
2023-03-08T09:14:25.803Z,-2.60
2023-03-08T09:16:53.311Z,-2.80
2023-03-08T09:19:20.452Z,-2.80
2023-03-08T09:21:47.594Z,-2.80
2023-03-08T09:24:14.980Z,-2.70
2023-03-08T09:26:41.995Z,-2.80
2023-03-08T09:29:09.924Z,-2.70
2023-03-08T09:31:39.936Z,-2.60
2023-03-08T09:34:09.522Z,-2.50
2023-03-08T09:36:39.814Z,-2.40
2023-03-08T09:39:09.085Z,-2.30
2023-03-08T09:41:45.500Z,-2.40
2023-03-08T09:44:44.054Z,-2.40
2023-03-08T09:47:20.552Z,-2.40
2023-03-08T09:49:52.758Z,-2.40
2023-03-08T09:52:42.080Z,-2.40
2023-03-08T09:55:34.763Z,-2.50
2023-03-08T09:58:23.504Z,-2.60
2023-03-08T10:00:51.354Z,-2.40
2023-03-08T10:03:46.120Z,-2.40
2023-03-08T10:06:13.140Z,-2.40
2023-03-08T10:08:56.595Z,-2.30
2023-03-08T10:11:39.194Z,-2.30
2023-03-08T10:14:38.859Z,-2.40
2023-03-08T10:17:20.938Z,-2.40
2023-03-08T10:19:55.055Z,-2.40
2023-03-08T10:22:33.439Z,-2.40
2023-03-08T10:25:28.983Z,-2.40
2023-03-08T10:27:58.071Z,-2.40
2023-03-08T10:30:29.044Z,-2.30
2023-03-08T10:33:00.044Z,-2.30
2023-03-08T10:35:39.333Z,-2.30
2023-03-08T10:38:16.560Z,-2.40
2023-03-08T10:40:43.964Z,-2.40
2023-03-08T10:43:25.674Z,-2.30
2023-03-08T10:46:11.405Z,-2.30
2023-03-08T10:48:39.577Z,-2.30
2023-03-08T10:51:16.053Z,-2.30
2023-03-08T10:53:59.841Z,-2.30
2023-03-08T10:56:44.984Z,-2.30
2023-03-08T10:59:23.010Z,-2.30
2023-03-08T11:01:56.463Z,-2.30
2023-03-08T11:04:25.668Z,-2.20
2023-03-08T11:06:53.003Z,-2.30
2023-03-08T11:09:29.829Z,-2.20
2023-03-08T11:11:58.463Z,-2.10
2023-03-08T11:14:27.179Z,-2.20
2023-03-08T11:17:23.580Z,-2.10
2023-03-08T11:20:11.384Z,-2.10
2023-03-08T11:22:46.959Z,-2.20
2023-03-08T11:25:14.210Z,-2.20
2023-03-08T11:27:59.238Z,-2.20
2023-03-08T11:30:53.905Z,-2.10
2023-03-08T11:33:36.530Z,-2.00
2023-03-08T11:36:18.745Z,-2.00
2023-03-08T11:39:05.055Z,-2.00
2023-03-08T11:42:00.007Z,-2.00
2023-03-08T11:44:50.917Z,-2.10
2023-03-08T11:47:29.781Z,-2.00
2023-03-08T11:50:06.307Z,-2.10
2023-03-08T11:52:43.597Z,-2.10
2023-03-08T11:55:20.931Z,-2.10
2023-03-08T11:57:55.139Z,-2.20
2023-03-08T12:00:26.589Z,-2.20
2023-03-08T12:02:57.417Z,-2.10
2023-03-08T12:05:38.726Z,-2.00
2023-03-08T12:08:21.485Z,-2.00
2023-03-08T12:10:57.184Z,-2.00
2023-03-08T12:13:35.606Z,-2.00
2023-03-08T12:16:16.403Z,-1.90
2023-03-08T12:18:49.085Z,-1.90
2023-03-08T12:21:24.128Z,-1.90
2023-03-08T12:24:16.160Z,-1.90
2023-03-08T12:26:52.146Z,-1.90
2023-03-08T12:29:34.961Z,-1.90
2023-03-08T12:32:04.214Z,-1.90
2023-03-08T12:34:43.844Z,-1.80
2023-03-08T12:37:21.263Z,-1.80
2023-03-08T12:40:42.092Z,-1.80
2023-03-08T12:43:19.827Z,-1.90
2023-03-08T12:46:01.606Z,-2.00
2023-03-08T12:48:44.714Z,-1.90
2023-03-08T12:51:14.821Z,-1.90
2023-03-08T12:53:50.332Z,-1.90
2023-03-08T12:56:34.725Z,-1.90
2023-03-08T12:59:09.972Z,-1.90
2023-03-08T13:01:47.301Z,-1.90
2023-03-08T13:04:41.896Z,-1.90
2023-03-08T13:07:28.838Z,-1.80
2023-03-08T13:10:04.646Z,-1.80
2023-03-08T13:12:51.478Z,-1.80
2023-03-08T13:15:24.618Z,-1.90
2023-03-08T13:17:53.388Z,-1.90
2023-03-08T13:20:51.508Z,-1.90
2023-03-08T13:23:32.206Z,-1.80
2023-03-08T13:26:21.412Z,-1.80
2023-03-08T13:28:50.344Z,-1.80
2023-03-08T13:31:30.630Z,-1.80
2023-03-08T13:33:59.926Z,-1.80
2023-03-08T13:36:29.703Z,-1.70
2023-03-08T13:39:02.711Z,-1.80
2023-03-08T13:41:34.662Z,-1.80
2023-03-08T13:44:07.674Z,-1.80
2023-03-08T13:46:38.607Z,-1.80
2023-03-08T13:49:20.523Z,-1.80
2023-03-08T13:51:52.836Z,-1.80
2023-03-08T13:54:38.452Z,-1.70
2023-03-08T13:57:18.529Z,-1.70
2023-03-08T13:59:50.632Z,-1.60
2023-03-08T14:02:24.252Z,-1.60
2023-03-08T14:04:52.272Z,-1.70
2023-03-08T14:07:32.265Z,-1.70
2023-03-08T14:09:59.707Z,-1.70
2023-03-08T14:12:30.521Z,-1.60
2023-03-08T14:15:01.481Z,-1.70
2023-03-08T14:17:31.394Z,-1.70
2023-03-08T14:20:01.972Z,-1.60
2023-03-08T14:22:39.756Z,-1.60
2023-03-08T14:25:20.776Z,-1.60
2023-03-08T14:27:48.334Z,-1.70
2023-03-08T14:30:35.838Z,-1.80
2023-03-08T14:33:09.000Z,-1.70
2023-03-08T14:35:38.073Z,-1.60
2023-03-08T14:38:27.794Z,-1.70
2023-03-08T14:40:58.929Z,-1.70
2023-03-08T14:43:28.075Z,-1.70
2023-03-08T14:46:04.855Z,-1.70
2023-03-08T14:48:34.805Z,-1.60
2023-03-08T14:51:07.488Z,-1.60
2023-03-08T14:53:40.390Z,-1.60
2023-03-08T14:56:16.020Z,-1.60
2023-03-08T14:58:51.937Z,-1.70
2023-03-08T15:01:29.886Z,-1.70
2023-03-08T15:03:58.237Z,-1.70
2023-03-08T15:06:34.681Z,-1.70
2023-03-08T15:09:04.118Z,-1.70
2023-03-08T15:11:32.628Z,-1.70
2023-03-08T15:14:00.574Z,-1.70
2023-03-08T15:16:30.945Z,-1.70
2023-03-08T15:18:57.964Z,-1.80
2023-03-08T15:21:28.542Z,-1.70
2023-03-08T15:23:56.751Z,-1.70
2023-03-08T15:26:31.601Z,-1.70
2023-03-08T15:28:59.491Z,-1.80
2023-03-08T15:31:26.526Z,-1.80
2023-03-08T15:33:55.486Z,-1.70
2023-03-08T15:36:22.634Z,-1.70
2023-03-08T15:38:49.746Z,-1.70
2023-03-08T15:41:17.213Z,-1.60
2023-03-08T15:43:44.589Z,-1.80
2023-03-08T15:46:15.636Z,-1.80
2023-03-08T15:48:45.747Z,-1.80
2023-03-08T15:51:20.334Z,-1.80
2023-03-08T15:53:49.089Z,-1.80
2023-03-08T15:56:16.696Z,-1.80
2023-03-08T15:58:43.805Z,-1.80
2023-03-08T16:01:12.134Z,-1.80
2023-03-08T16:03:39.394Z,-1.90
2023-03-08T16:06:11.711Z,-1.90
2023-03-08T16:08:39.853Z,-1.90
2023-03-08T16:11:09.058Z,-1.90
2023-03-08T16:13:36.384Z,-1.90
2023-03-08T16:16:04.840Z,-2.00
2023-03-08T16:18:33.114Z,-1.90
2023-03-08T16:21:00.397Z,-1.80
2023-03-08T16:23:27.636Z,-1.90
2023-03-08T16:26:13.540Z,-1.80
2023-03-08T16:28:42.549Z,-1.90
2023-03-08T16:31:09.852Z,-1.90
2023-03-08T16:33:36.838Z,-1.90
2023-03-08T16:36:04.235Z,-1.90
2023-03-08T16:38:33.962Z,-2.00
2023-03-08T16:41:12.817Z,-2.10
2023-03-08T16:43:49.794Z,-1.90
2023-03-08T16:46:26.304Z,-1.90
2023-03-08T16:48:57.804Z,-1.90
2023-03-08T16:51:28.827Z,-2.00
2023-03-08T16:53:56.184Z,-1.90
2023-03-08T16:56:26.123Z,-1.90
2023-03-08T16:58:57.734Z,-2.00
2023-03-08T17:01:28.358Z,-1.90
2023-03-08T17:03:56.529Z,-2.10
2023-03-08T17:06:25.704Z,-2.00
2023-03-08T17:08:53.009Z,-2.10
2023-03-08T17:11:26.033Z,-2.20
2023-03-08T17:13:59.420Z,-2.10
2023-03-08T17:16:28.621Z,-2.20
2023-03-08T17:18:56.593Z,-2.30
2023-03-08T17:21:24.093Z,-2.20
2023-03-08T17:23:52.301Z,-2.30
2023-03-08T17:26:21.567Z,-2.30
2023-03-08T17:28:53.061Z,-2.30
2023-03-08T17:31:23.646Z,-2.30
2023-03-08T17:33:51.016Z,-2.30
2023-03-08T17:36:18.496Z,-2.30
2023-03-08T17:38:45.714Z,-2.30
2023-03-08T17:41:15.515Z,-2.30
2023-03-08T17:43:42.677Z,-2.40
2023-03-08T17:46:14.209Z,-2.40
2023-03-08T17:48:41.667Z,-2.30
2023-03-08T17:51:12.132Z,-2.30
2023-03-08T17:53:39.565Z,-2.30
2023-03-08T17:56:08.147Z,-2.30
2023-03-08T17:58:37.245Z,-2.20
2023-03-08T18:01:09.973Z,-2.20
2023-03-08T18:03:37.625Z,-2.20
2023-03-08T18:06:05.688Z,-2.30
2023-03-08T18:08:34.378Z,-2.20
2023-03-08T18:11:04.056Z,-2.20
2023-03-08T18:13:31.114Z,-2.20
2023-03-08T18:15:58.290Z,-2.20
2023-03-08T18:18:27.254Z,-2.10
2023-03-08T18:21:01.336Z,-2.10
2023-03-08T18:23:34.378Z,-2.10
2023-03-08T18:26:02.669Z,-2.10
2023-03-08T18:28:30.914Z,-2.20
2023-03-08T18:30:58.010Z,-2.20
2023-03-08T18:33:25.717Z,-2.30
2023-03-08T18:35:59.121Z,-2.20
2023-03-08T18:38:26.381Z,-2.20
2023-03-08T18:40:53.444Z,-2.10
2023-03-08T18:43:20.537Z,-2.20
2023-03-08T18:45:55.572Z,-2.10
2023-03-08T18:48:24.112Z,-2.20
2023-03-08T18:50:51.398Z,-2.20
2023-03-08T18:53:18.505Z,-2.20
2023-03-08T18:55:57.018Z,-2.20
2023-03-08T18:58:25.984Z,-2.30
2023-03-08T19:00:58.885Z,-2.20
2023-03-08T19:03:29.273Z,-2.20
2023-03-08T19:06:01.107Z,-2.20
2023-03-08T19:08:34.628Z,-2.30
2023-03-08T19:11:13.380Z,-2.20
2023-03-08T19:13:41.619Z,-2.30
2023-03-08T19:16:23.693Z,-2.30
2023-03-08T19:18:54.808Z,-2.30
2023-03-08T19:21:33.781Z,-2.30
2023-03-08T19:24:02.250Z,-2.30
2023-03-08T19:26:39.012Z,-2.30
2023-03-08T19:29:35.468Z,-2.30
2023-03-08T19:32:05.289Z,-2.40
2023-03-08T19:34:34.678Z,-2.40
2023-03-08T19:48:00.274Z,-2.60
2023-03-08T19:51:39.071Z,-2.50
2023-03-08T20:08:29.502Z,-2.50
2023-03-08T20:12:33.495Z,-2.60
2023-03-08T20:18:01.397Z,-2.50
2023-03-08T20:21:04.535Z,-2.60
2023-03-08T20:26:52.187Z,-2.50
2023-03-08T20:29:20.062Z,-2.60
2023-03-08T20:32:21.351Z,-2.50
2023-03-08T20:34:49.354Z,-2.50
2023-03-08T20:37:16.341Z,-2.50
2023-03-08T20:39:44.853Z,-2.50
2023-03-08T20:42:20.405Z,-2.50
2023-03-08T20:44:58.657Z,-2.50
2023-03-08T20:47:27.298Z,-2.60
2023-03-08T20:57:54.676Z,-2.50
2023-03-08T21:09:44.018Z,-2.50
2023-03-08T21:32:20.292Z,-2.80
2023-03-08T21:34:47.309Z,-2.80
2023-03-08T21:37:14.375Z,-2.90
2023-03-08T21:39:41.508Z,-2.90
2023-03-08T21:42:09.359Z,-2.90
2023-03-08T21:44:39.938Z,-3.00
2023-03-08T21:47:09.907Z,-3.00
2023-03-08T21:49:37.866Z,-3.00
2023-03-08T21:52:10.692Z,-3.00
2023-03-08T21:54:37.834Z,-3.00
2023-03-08T21:57:04.912Z,-3.00
2023-03-08T21:59:32.054Z,-3.00
2023-03-08T22:01:59.439Z,-3.00
2023-03-08T22:04:27.799Z,-3.00
2023-03-08T22:06:55.917Z,-3.10
2023-03-08T22:09:26.680Z,-3.10
2023-03-08T22:11:53.891Z,-3.10
2023-03-08T22:14:20.876Z,-3.20
2023-03-08T22:16:48.055Z,-3.20
2023-03-08T22:19:15.386Z,-3.30
2023-03-08T22:21:42.465Z,-3.20
2023-03-08T22:24:10.421Z,-3.30
2023-03-08T22:26:37.687Z,-3.30
2023-03-08T22:29:05.056Z,-3.30
2023-03-08T22:31:32.636Z,-3.40
2023-03-08T22:34:01.406Z,-3.40
2023-03-08T22:36:28.532Z,-3.40
2023-03-08T22:38:55.621Z,-3.40
2023-03-08T22:41:25.527Z,-3.40
2023-03-08T22:43:53.278Z,-3.50
2023-03-08T22:46:27.555Z,-3.50
2023-03-08T22:48:57.716Z,-3.50
2023-03-08T22:51:25.635Z,-3.50
2023-03-08T22:53:52.691Z,-3.50
2023-03-08T22:56:23.462Z,-3.50
2023-03-08T22:58:50.598Z,-3.60
2023-03-08T23:01:20.510Z,-3.60
2023-03-08T23:03:49.801Z,-3.60
2023-03-08T23:06:18.091Z,-3.60
2023-03-08T23:08:45.894Z,-3.60
2023-03-08T23:11:13.734Z,-3.70
2023-03-08T23:13:41.464Z,-3.70
2023-03-08T23:16:11.635Z,-3.70
2023-03-08T23:18:38.792Z,-3.70
2023-03-08T23:21:09.829Z,-3.70
2023-03-08T23:23:37.360Z,-3.70
2023-03-08T23:26:06.557Z,-3.70
2023-03-08T23:28:37.282Z,-3.80
2023-03-08T23:31:19.429Z,-3.80
2023-03-08T23:33:46.983Z,-3.80
2023-03-08T23:36:16.025Z,-3.80
2023-03-08T23:38:43.352Z,-3.80
2023-03-08T23:41:12.622Z,-3.80
2023-03-08T23:43:40.528Z,-3.80
2023-03-08T23:46:13.743Z,-3.80
2023-03-08T23:48:41.361Z,-3.90
2023-03-08T23:51:10.352Z,-3.90
2023-03-08T23:53:37.455Z,-3.90
2023-03-08T23:56:05.684Z,-3.90
2023-03-08T23:58:33.111Z,-3.90
